Time,TemperatureF,DewpointF,PressureIn,WindDirection,WindDirectionDegrees,WindSpeedMPH,WindSpeedGustMPH,Humidity,HourlyPrecipIn,Conditions,Clouds,dailyrainin,SoftwareType,DateUTC
2013-10-18 00:02:00,43.3,38.8,29.81,West,261,0.0,0.0,84,0.00,RA,,0.00,WeatherDisplay:10.37,2013-10-18 05:02:00,
2013-10-18 00:07:00,43.3,38.8,29.81,West,261,0.0,0.0,84,0.00,RA,,0.00,WeatherDisplay:10.37,2013-10-18 05:07:00,
2013-10-18 00:12:00,43.1,38.6,29.81,West,261,0.0,0.0,84,0.00,CLR,,0.00,WeatherDisplay:10.37,2013-10-18 05:12:00,
2013-10-18 00:17:00,43.2,38.7,29.81,SW,216,2.3,3.5,84,0.00,CLR,,0.00,WeatherDisplay:10.37,2013-10-18 05:17:00,
2013-10-18 00:22:00,43.1,38.6,29.81,SSW,212,1.4,2.3,84,0.00,CLR,,0.00,WeatherDisplay:10.37,2013-10-18 05:22:00,
2013-10-18 00:27:00,43.2,38.7,29.81,South,184,0.0,0.0,84,0.00,CLR,,0.00,WeatherDisplay:10.37,2013-10-18 05:27:00,
2013-10-18 00:32:00,43.2,38.4,29.81,South,184,0.0,0.0,83,0.00,CLR,,0.00,WeatherDisplay:10.37,2013-10-18 05:32:00,
2013-10-18 00:37:00,43.1,38.3,29.81,South,184,0.0,0.0,83,0.00,CLR,,0.00,WeatherDisplay:10.37,2013-10-18 05:37:00,
2013-10-18 00:42:00,43.0,38.2,29.81,SW,222,1.6,2.3,83,0.00,CLR,,0.00,WeatherDisplay:10.37,2013-10-18 05:42:00,
2013-10-18 00:47:00,43.0,38.5,29.81,SSW,195,1.8,3.5,84,0.00,CLR,,0.00,WeatherDisplay:10.37,2013-10-18 05:47:00,
2013-10-18 00:52:00,42.9,38.4,29.81,SE,136,0.4,1.2,84,0.00,CLR,,0.00,WeatherDisplay:10.37,2013-10-18 05:52:00,
2013-10-18 00:57:00,42.6,38.1,29.81,SSW,194,2.5,4.6,84,0.00,CLR,,0.00,WeatherDisplay:10.37,2013-10-18 05:57:00,
2013-10-18 01:02:00,42.8,38.3,29.81,South,171,0.8,1.7,84,0.00,CLR,,0.00,WeatherDisplay:10.37,2013-10-18 06:02:00,
2013-10-18 01:07:00,43.0,38.5,29.81,SSW,204,0.0,0.0,84,0.00,CLR,,0.00,WeatherDisplay:10.37,2013-10-18 06:07:00,
2013-10-18 01:12:00,42.8,38.3,29.80,SW,232,1.7,3.9,84,0.00,CLR,,0.00,WeatherDisplay:10.37,2013-10-18 06:12:00,
2013-10-18 01:17:00,42.8,38.3,29.81,South,185,0.0,0.0,84,0.00,CLR,,0.00,WeatherDisplay:10.37,2013-10-18 06:17:00,
2013-10-18 01:22:00,42.9,38.4,29.80,SSW,194,0.4,2.5,84,0.00,CLR,,0.00,WeatherDisplay:10.37,2013-10-18 06:22:00,
2013-10-18 01:27:00,43.0,38.5,29.81,SSW,213,1.5,2.3,84,0.00,CLR,,0.00,WeatherDisplay:10.37,2013-10-18 06:27:00,
2013-10-18 01:32:00,43.4,38.6,29.81,South,182,1.9,2.5,83,0.00,CLR,,0.00,WeatherDisplay:10.37,2013-10-18 06:32:00,
2013-10-18 01:37:00,43.5,38.4,29.81,SW,215,2.0,5.8,82,0.00,CLR,,0.00,WeatherDisplay:10.37,2013-10-18 06:37:00,
2013-10-18 01:42:00,43.8,38.7,29.80,WSW,254,1.3,3.5,82,0.00,CLR,,0.00,WeatherDisplay:10.37,2013-10-18 06:42:00,
2013-10-18 01:47:00,44.0,38.5,29.80,WSW,237,0.6,3.5,81,0.00,CLR,,0.00,WeatherDisplay:10.37,2013-10-18 06:47:00,
2013-10-18 01:52:00,43.8,38.3,29.80,South,182,1.4,5.8,81,0.00,CLR,,0.00,WeatherDisplay:10.37,2013-10-18 06:52:00,
2013-10-18 01:57:00,43.8,38.3,29.80,WSW,252,1.6,4.6,81,0.00,CLR,,0.00,WeatherDisplay:10.37,2013-10-18 06:57:00,
2013-10-18 02:02:00,43.8,38.3,29.80,South,175,2.1,3.5,81,0.00,CLR,,0.00,WeatherDisplay:10.37,2013-10-18 07:02:00,
2013-10-18 02:07:00,43.6,38.2,29.80,SSW,205,2.6,5.2,81,0.00,CLR,,0.00,WeatherDisplay:10.37,2013-10-18 07:07:00,
2013-10-18 02:12:00,43.6,38.2,29.80,SW,225,3.2,4.6,81,0.00,CLR,,0.00,WeatherDisplay:10.37,2013-10-18 07:12:00,
2013-10-18 02:17:00,43.8,38.3,29.79,SSE,164,2.5,4.6,81,0.00,CLR,,0.00,WeatherDisplay:10.37,2013-10-18 07:17:00,
2013-10-18 02:22:00,43.5,38.1,29.80,SSW,213,4.9,6.9,81,0.00,CLR,,0.00,WeatherDisplay:10.37,2013-10-18 07:22:00,
2013-10-18 02:27:00,43.6,38.2,29.79,SW,230,4.2,9.2,81,0.00,CLR,,0.00,WeatherDisplay:10.37,2013-10-18 07:27:00,
2013-10-18 02:32:00,43.4,38.0,29.79,SW,226,3.2,5.8,81,0.00,CLR,,0.00,WeatherDisplay:10.37,2013-10-18 07:32:00,
2013-10-18 02:37:00,43.1,37.7,29.79,West,273,1.6,6.9,81,0.00,CLR,,0.00,WeatherDisplay:10.37,2013-10-18 07:37:00,
2013-10-18 02:42:00,43.2,38.1,29.79,SSW,201,3.4,6.1,82,0.00,CLR,,0.00,WeatherDisplay:10.37,2013-10-18 07:42:00,
2013-10-18 02:47:00,43.2,38.1,29.79,SSW,213,3.8,7.0,82,0.00,CLR,,0.00,WeatherDisplay:10.37,2013-10-18 07:47:00,
2013-10-18 02:52:00,43.1,38.0,29.79,South,180,4.5,6.9,82,0.00,CLR,,0.00,WeatherDisplay:10.37,2013-10-18 07:52:00,
2013-10-18 02:57:00,42.9,38.1,29.79,South,187,2.3,6.9,83,0.00,CLR,,0.00,WeatherDisplay:10.37,2013-10-18 07:57:00,
2013-10-18 03:02:00,42.9,38.1,29.80,WSW,257,1.0,3.1,83,0.00,BKN,,0.00,WeatherDisplay:10.37,2013-10-18 08:02:00,
2013-10-18 03:07:00,42.5,38.0,29.79,South,191,1.5,4.6,84,0.00,BKN,,0.00,WeatherDisplay:10.37,2013-10-18 08:07:00,
2013-10-18 03:12:00,42.4,37.9,29.80,SW,232,0.4,2.3,84,0.00,BKN,,0.00,WeatherDisplay:10.37,2013-10-18 08:12:00,
2013-10-18 03:17:00,42.3,38.1,29.80,WSW,242,0.0,0.0,85,0.00,BKN,,0.00,WeatherDisplay:10.37,2013-10-18 08:17:00,
2013-10-18 03:22:00,42.3,38.1,29.79,WSW,249,3.5,4.6,85,0.00,BKN,,0.00,WeatherDisplay:10.37,2013-10-18 08:22:00,
2013-10-18 03:27:00,42.4,38.2,29.79,South,191,1.8,4.6,85,0.00,BKN,,0.00,WeatherDisplay:10.37,2013-10-18 08:27:00,
2013-10-18 03:32:00,42.2,38.3,29.79,SSW,196,3.1,4.6,86,0.00,BKN,,0.00,WeatherDisplay:10.37,2013-10-18 08:32:00,
2013-10-18 03:37:00,42.3,38.4,29.79,SE,144,4.1,5.8,86,0.00,BKN,,0.00,WeatherDisplay:10.37,2013-10-18 08:37:00,
2013-10-18 03:42:00,42.0,38.4,29.79,WSW,252,3.5,6.0,87,0.00,BKN,,0.00,WeatherDisplay:10.37,2013-10-18 08:42:00,
2013-10-18 03:47:00,41.9,38.3,29.79,WSW,243,2.6,4.6,87,0.00,BKN,,0.00,WeatherDisplay:10.37,2013-10-18 08:47:00,
2013-10-18 03:52:00,41.7,38.4,29.79,SSW,211,4.7,6.9,88,0.00,BKN,,0.00,WeatherDisplay:10.37,2013-10-18 08:52:00,
2013-10-18 03:57:00,41.7,38.4,29.79,SSW,198,3.7,5.8,88,0.00,BKN,,0.00,WeatherDisplay:10.37,2013-10-18 08:57:00,
2013-10-18 04:02:00,41.7,38.7,29.79,WSW,253,4.2,5.8,89,0.00,OVC,,0.00,WeatherDisplay:10.37,2013-10-18 09:02:00,
2013-10-18 04:07:00,41.4,38.4,29.79,West,267,2.3,4.6,89,0.00,OVC,,0.00,WeatherDisplay:10.37,2013-10-18 09:07:00,
2013-10-18 04:12:00,41.4,38.7,29.79,West,267,3.0,4.6,90,0.00,OVC,,0.00,WeatherDisplay:10.37,2013-10-18 09:12:00,
2013-10-18 04:17:00,41.6,38.9,29.80,SW,215,1.0,2.3,90,0.00,OVC,,0.00,WeatherDisplay:10.37,2013-10-18 09:17:00,
2013-10-18 04:22:00,41.6,38.9,29.79,WSW,246,1.2,2.8,90,0.00,OVC,,0.00,WeatherDisplay:10.37,2013-10-18 09:22:00,
2013-10-18 04:27:00,41.3,38.9,29.79,SW,215,0.8,5.8,91,0.00,OVC,,0.00,WeatherDisplay:10.37,2013-10-18 09:27:00,
2013-10-18 04:32:00,41.5,39.1,29.79,WSW,247,1.4,3.5,91,0.00,OVC,,0.00,WeatherDisplay:10.37,2013-10-18 09:32:00,
2013-10-18 04:37:00,41.4,39.3,29.79,SSE,148,0.3,2.3,92,0.00,OVC,,0.00,WeatherDisplay:10.37,2013-10-18 09:37:00,
2013-10-18 04:42:00,41.7,39.5,29.80,West,271,1.6,4.6,92,0.00,OVC,,0.00,WeatherDisplay:10.37,2013-10-18 09:42:00,
2013-10-18 04:47:00,41.5,39.3,29.80,WSW,242,1.3,2.3,92,0.00,OVC,,0.00,WeatherDisplay:10.37,2013-10-18 09:47:00,
2013-10-18 04:52:00,41.6,39.4,29.80,West,274,0.0,0.0,92,0.00,OVC,,0.00,WeatherDisplay:10.37,2013-10-18 09:52:00,
2013-10-18 04:57:00,41.6,39.7,29.80,NW,307,0.2,1.7,93,0.00,OVC,,0.00,WeatherDisplay:10.37,2013-10-18 09:57:00,
2013-10-18 05:02:00,41.8,39.9,29.80,West,267,2.1,5.8,93,0.00,BKN,,0.00,WeatherDisplay:10.37,2013-10-18 10:02:00,
2013-10-18 05:07:00,41.8,40.2,29.81,WSW,257,2.4,5.8,94,0.00,BKN,,0.00,WeatherDisplay:10.37,2013-10-18 10:07:00,
2013-10-18 05:12:00,41.8,40.2,29.81,West,280,0.0,1.2,94,0.00,BKN,,0.00,WeatherDisplay:10.37,2013-10-18 10:12:00,
2013-10-18 05:17:00,41.7,40.4,29.81,West,260,3.2,8.1,95,0.00,BKN,,0.00,WeatherDisplay:10.37,2013-10-18 10:17:00,
2013-10-18 05:22:00,42.0,40.7,29.81,SW,230,1.7,4.6,95,0.00,BKN,,0.00,WeatherDisplay:10.37,2013-10-18 10:22:00,
2013-10-18 05:27:00,42.2,41.1,29.81,WNW,297,1.5,9.0,96,0.00,BKN,,0.00,WeatherDisplay:10.37,2013-10-18 10:27:00,
2013-10-18 05:32:00,42.8,42.3,29.81,West,280,5.2,8.1,98,0.00,BKN,,0.00,WeatherDisplay:10.37,2013-10-18 10:32:00,
2013-10-18 05:37:00,43.0,42.2,29.81,NW,307,3.4,6.9,97,0.00,BKN,,0.00,WeatherDisplay:10.37,2013-10-18 10:37:00,
2013-10-18 05:42:00,43.1,42.3,29.81,WSW,239,2.0,4.6,97,0.00,BKN,,0.00,WeatherDisplay:10.37,2013-10-18 10:42:00,
2013-10-18 05:47:00,43.0,42.5,29.81,NW,312,2.1,4.6,98,0.00,BKN,,0.00,WeatherDisplay:10.37,2013-10-18 10:47:00,
2013-10-18 05:52:00,43.1,42.6,29.81,NW,312,0.9,5.8,98,0.00,BKN,,0.00,WeatherDisplay:10.37,2013-10-18 10:52:00,
2013-10-18 05:57:00,42.9,42.6,29.81,WNW,298,1.8,7.4,99,0.00,BKN,,0.00,WeatherDisplay:10.37,2013-10-18 10:57:00,
2013-10-18 06:02:00,43.3,43.0,29.81,SSE,163,2.0,4.6,99,0.00,SCT,,0.00,WeatherDisplay:10.37,2013-10-18 11:02:00,
2013-10-18 06:07:00,43.2,43.2,29.81,West,271,0.2,3.1,100,0.00,SCT,,0.00,WeatherDisplay:10.37,2013-10-18 11:07:00,
2013-10-18 06:12:00,43.4,43.4,29.81,West,270,1.9,8.0,100,0.00,SCT,,0.00,WeatherDisplay:10.37,2013-10-18 11:12:00,
2013-10-18 06:17:00,43.4,43.4,29.81,West,270,2.9,8.1,100,0.00,SCT,,0.00,WeatherDisplay:10.37,2013-10-18 11:17:00,
2013-10-18 06:22:00,43.4,43.4,29.82,WSW,239,5.3,6.9,100,0.00,SCT,,0.00,WeatherDisplay:10.37,2013-10-18 11:22:00,
2013-10-18 06:27:00,43.8,43.8,29.82,WNW,292,3.2,5.8,100,0.00,SCT,,0.00,WeatherDisplay:10.37,2013-10-18 11:27:00,
2013-10-18 06:32:00,43.9,43.9,29.82,West,266,4.2,9.2,100,0.00,SCT,,0.00,WeatherDisplay:10.37,2013-10-18 11:32:00,
2013-10-18 06:37:00,44.2,44.2,29.82,NW,307,2.8,9.2,100,0.00,SCT,,0.00,WeatherDisplay:10.37,2013-10-18 11:37:00,
2013-10-18 06:42:00,44.4,44.4,29.82,West,264,2.3,5.8,100,0.00,SCT,,0.00,WeatherDisplay:10.37,2013-10-18 11:42:00,
2013-10-18 06:47:00,44.7,44.7,29.82,NNW,336,2.2,3.5,100,0.00,SCT,,0.00,WeatherDisplay:10.37,2013-10-18 11:47:00,
2013-10-18 06:52:00,44.5,44.5,29.82,SW,230,3.4,5.8,100,0.00,SCT,,0.00,WeatherDisplay:10.37,2013-10-18 11:52:00,
2013-10-18 06:57:00,44.6,44.6,29.83,NW,309,3.8,6.9,100,0.00,SCT,,0.00,WeatherDisplay:10.37,2013-10-18 11:57:00,
2013-10-18 07:02:00,44.6,44.6,29.83,West,281,3.2,5.8,100,0.00,BKN,,0.00,WeatherDisplay:10.37,2013-10-18 12:02:00,
2013-10-18 07:07:00,44.9,44.9,29.83,NW,311,3.8,5.8,100,0.00,BKN,,0.00,WeatherDisplay:10.37,2013-10-18 12:07:00,
2013-10-18 07:12:00,44.9,44.9,29.83,WNW,288,2.8,5.8,100,0.00,BKN,,0.00,WeatherDisplay:10.37,2013-10-18 12:12:00,
2013-10-18 07:17:00,44.7,44.7,29.83,SW,233,3.1,4.6,100,0.00,BKN,,0.00,WeatherDisplay:10.37,2013-10-18 12:17:00,
2013-10-18 07:22:00,44.9,44.9,29.83,WNW,287,3.6,8.1,100,0.00,BKN,,0.00,WeatherDisplay:10.37,2013-10-18 12:22:00,
2013-10-18 07:27:00,44.9,44.9,29.83,WSW,253,4.7,11.5,100,0.00,BKN,,0.00,WeatherDisplay:10.37,2013-10-18 12:27:00,
2013-10-18 07:32:00,45.0,45.0,29.83,West,271,3.3,5.0,100,0.00,BKN,,0.00,WeatherDisplay:10.37,2013-10-18 12:32:00,
2013-10-18 07:37:00,45.1,45.1,29.83,WSW,242,4.3,6.9,100,0.00,BKN,,0.00,WeatherDisplay:10.37,2013-10-18 12:37:00,
2013-10-18 07:42:00,45.1,45.1,29.83,South,182,3.1,6.9,100,0.00,BKN,,0.00,WeatherDisplay:10.37,2013-10-18 12:42:00,
2013-10-18 07:47:00,44.9,44.9,29.83,SSE,157,0.0,2.3,100,0.00,BKN,,0.00,WeatherDisplay:10.37,2013-10-18 12:47:00,
2013-10-18 07:52:00,45.1,45.1,29.84,WNW,295,1.6,5.8,100,0.00,BKN,,0.00,WeatherDisplay:10.37,2013-10-18 12:52:00,
2013-10-18 07:57:00,45.0,45.0,29.84,West,281,3.3,5.8,100,0.00,BKN,,0.00,WeatherDisplay:10.37,2013-10-18 12:57:00,
2013-10-18 08:02:00,45.1,44.8,29.84,SW,218,4.4,8.1,99,0.00,OVC,,0.00,WeatherDisplay:10.37,2013-10-18 13:02:00,
2013-10-18 08:07:00,45.2,44.9,29.84,WNW,298,2.8,4.6,99,0.00,OVC,,0.00,WeatherDisplay:10.37,2013-10-18 13:07:00,
2013-10-18 08:12:00,44.9,44.6,29.85,NW,308,6.7,13.8,99,0.00,OVC,,0.00,WeatherDisplay:10.37,2013-10-18 13:12:00,
2013-10-18 08:17:00,45.0,44.7,29.85,WSW,237,4.3,6.9,99,0.00,OVC,,0.00,WeatherDisplay:10.37,2013-10-18 13:17:00,
2013-10-18 08:22:00,44.9,44.6,29.85,SSW,206,2.8,4.6,99,0.00,OVC,,0.00,WeatherDisplay:10.37,2013-10-18 13:22:00,
2013-10-18 08:27:00,44.8,44.5,29.85,SSW,205,4.5,6.9,99,0.00,OVC,,0.00,WeatherDisplay:10.37,2013-10-18 13:27:00,
2013-10-18 08:32:00,44.9,44.6,29.85,WSW,249,4.7,8.1,99,0.00,OVC,,0.00,WeatherDisplay:10.37,2013-10-18 13:32:00,
2013-10-18 08:37:00,44.7,44.4,29.86,West,280,5.6,9.1,99,0.00,OVC,,0.00,WeatherDisplay:10.37,2013-10-18 13:37:00,
2013-10-18 08:42:00,44.4,43.9,29.86,West,273,5.7,10.4,98,0.00,OVC,,0.00,WeatherDisplay:10.37,2013-10-18 13:42:00,
2013-10-18 08:47:00,44.3,43.5,29.86,WNW,283,7.8,10.4,97,0.00,OVC,,0.00,WeatherDisplay:10.37,2013-10-18 13:47:00,
2013-10-18 08:52:00,44.6,43.8,29.86,NW,314,4.3,10.4,97,0.00,OVC,,0.00,WeatherDisplay:10.37,2013-10-18 13:52:00,
2013-10-18 08:57:00,44.6,43.5,29.86,NW,311,6.0,8.1,96,0.00,OVC,,0.00,WeatherDisplay:10.37,2013-10-18 13:57:00,
2013-10-18 09:02:00,44.5,43.2,29.86,NW,324,5.4,12.3,95,0.00,OVC,,0.00,WeatherDisplay:10.37,2013-10-18 14:02:00,
2013-10-18 09:07:00,44.6,42.7,29.86,SSW,198,8.4,11.5,93,0.00,OVC,,0.00,WeatherDisplay:10.37,2013-10-18 14:07:00,
2013-10-18 09:12:00,44.8,42.9,29.87,NW,314,6.1,12.4,93,0.00,OVC,,0.00,WeatherDisplay:10.37,2013-10-18 14:12:00,
2013-10-18 09:17:00,44.8,42.9,29.87,NW,308,5.7,11.5,93,0.00,OVC,,0.00,WeatherDisplay:10.37,2013-10-18 14:17:00,
2013-10-18 09:22:00,44.7,43.1,29.87,SW,226,3.8,6.9,94,0.00,OVC,,0.00,WeatherDisplay:10.37,2013-10-18 14:22:00,
2013-10-18 09:27:00,45.0,43.4,29.87,West,271,3.3,9.2,94,0.00,OVC,,0.00,WeatherDisplay:10.37,2013-10-18 14:27:00,
2013-10-18 09:32:00,45.1,43.5,29.87,West,261,4.1,10.4,94,0.00,OVC,,0.00,WeatherDisplay:10.37,2013-10-18 14:32:00,
2013-10-18 09:37:00,45.1,42.9,29.88,West,276,4.4,8.1,92,0.00,OVC,,0.00,WeatherDisplay:10.37,2013-10-18 14:37:00,
2013-10-18 09:42:00,45.0,42.8,29.88,NNW,333,4.3,6.9,92,0.00,OVC,,0.00,WeatherDisplay:10.37,2013-10-18 14:42:00,
2013-10-18 09:47:00,44.9,42.4,29.88,WSW,254,7.8,13.8,91,0.00,OVC,,0.00,WeatherDisplay:10.37,2013-10-18 14:47:00,
2013-10-18 09:52:00,44.9,42.4,29.88,ENE,58,4.1,6.9,91,0.00,OVC,,0.00,WeatherDisplay:10.37,2013-10-18 14:52:00,
2013-10-18 09:57:00,44.7,42.2,29.88,WNW,287,5.6,9.2,91,0.00,OVC,,0.00,WeatherDisplay:10.37,2013-10-18 14:57:00,
2013-10-18 10:02:00,44.9,41.3,29.88,WSW,250,7.9,16.1,87,0.00,OVC,,0.00,WeatherDisplay:10.37,2013-10-18 15:02:00,
2013-10-18 10:07:00,45.0,40.8,29.88,SSE,158,5.9,11.5,85,0.00,OVC,,0.00,WeatherDisplay:10.37,2013-10-18 15:07:00,
2013-10-18 10:12:00,45.0,40.8,29.88,WSW,254,4.9,12.4,85,0.00,OVC,,0.00,WeatherDisplay:10.37,2013-10-18 15:12:00,
2013-10-18 10:17:00,45.3,40.7,29.88,NNW,340,3.5,5.8,84,0.00,OVC,,0.00,WeatherDisplay:10.37,2013-10-18 15:17:00,
2013-10-18 10:22:00,45.2,40.3,29.88,West,260,4.6,8.1,83,0.00,OVC,,0.00,WeatherDisplay:10.37,2013-10-18 15:22:00,
2013-10-18 10:27:00,45.0,39.8,29.88,SW,236,9.4,13.8,82,0.00,OVC,,0.00,WeatherDisplay:10.37,2013-10-18 15:27:00,
2013-10-18 10:32:00,45.2,40.0,29.88,NW,312,7.7,12.7,82,0.00,OVC,,0.00,WeatherDisplay:10.37,2013-10-18 15:32:00,
2013-10-18 10:37:00,45.2,40.3,29.88,West,280,7.3,14.5,83,0.00,OVC,,0.00,WeatherDisplay:10.37,2013-10-18 15:37:00,
2013-10-18 10:42:00,45.1,40.2,29.88,WNW,294,7.2,13.8,83,0.00,OVC,,0.00,WeatherDisplay:10.37,2013-10-18 15:42:00,
2013-10-18 10:47:00,45.4,40.2,29.88,SSW,211,6.9,15.0,82,0.00,OVC,,0.00,WeatherDisplay:10.37,2013-10-18 15:47:00,
2013-10-18 10:52:00,45.2,40.0,29.88,West,280,6.3,9.2,82,0.00,OVC,,0.00,WeatherDisplay:10.37,2013-10-18 15:52:00,
2013-10-18 10:57:00,45.1,40.2,29.88,WNW,287,7.9,15.0,83,0.00,OVC,,0.00,WeatherDisplay:10.37,2013-10-18 15:57:00,
2013-10-18 11:02:00,45.2,40.3,29.88,West,281,7.9,12.7,83,0.00,OVC,,0.00,WeatherDisplay:10.37,2013-10-18 16:02:00,
2013-10-18 11:07:00,45.5,40.6,29.88,NW,326,4.3,9.2,83,0.00,OVC,,0.00,WeatherDisplay:10.37,2013-10-18 16:07:00,
2013-10-18 11:12:00,45.9,41.3,29.88,West,264,3.6,6.9,84,0.00,OVC,,0.00,WeatherDisplay:10.37,2013-10-18 16:12:00,
2013-10-18 11:17:00,45.8,40.9,29.88,NW,308,4.1,12.7,83,0.00,OVC,,0.00,WeatherDisplay:10.37,2013-10-18 16:17:00,
2013-10-18 11:22:00,46.0,41.1,29.88,NNW,328,2.9,6.7,83,0.00,OVC,,0.00,WeatherDisplay:10.37,2013-10-18 16:22:00,
2013-10-18 11:27:00,45.8,40.9,29.89,NW,312,5.6,11.5,83,0.00,OVC,,0.00,WeatherDisplay:10.37,2013-10-18 16:27:00,
2013-10-18 11:32:00,45.6,41.0,29.89,NW,325,4.0,13.8,84,0.00,OVC,,0.00,WeatherDisplay:10.37,2013-10-18 16:32:00,
2013-10-18 11:37:00,45.6,41.4,29.89,WNW,285,7.8,11.5,85,0.00,OVC,,0.00,WeatherDisplay:10.37,2013-10-18 16:37:00,
2013-10-18 11:42:00,45.8,41.2,29.89,NW,316,7.9,14.8,84,0.00,OVC,,0.00,WeatherDisplay:10.37,2013-10-18 16:42:00,
2013-10-18 11:47:00,45.7,41.1,29.89,WNW,287,7.2,11.5,84,0.00,OVC,,0.00,WeatherDisplay:10.37,2013-10-18 16:47:00,
2013-10-18 11:52:00,45.8,41.2,29.89,WNW,288,2.9,10.5,84,0.00,OVC,,0.00,WeatherDisplay:10.37,2013-10-18 16:52:00,
2013-10-18 11:57:00,45.4,40.5,29.89,SW,223,6.8,13.8,83,0.00,OVC,,0.00,WeatherDisplay:10.37,2013-10-18 16:57:00,
2013-10-18 12:02:00,45.4,40.8,29.89,NW,304,4.6,8.1,84,0.00,OVC,,0.00,WeatherDisplay:10.37,2013-10-18 17:02:00,
2013-10-18 12:07:00,45.0,40.5,29.89,NNW,329,7.3,12.7,84,0.00,OVC,,0.00,WeatherDisplay:10.37,2013-10-18 17:07:00,
2013-10-18 12:12:00,45.1,40.9,29.89,SW,232,4.5,9.2,85,0.00,OVC,,0.00,WeatherDisplay:10.37,2013-10-18 17:12:00,
2013-10-18 12:17:00,45.1,40.9,29.89,WNW,287,9.3,13.8,85,0.00,OVC,,0.00,WeatherDisplay:10.37,2013-10-18 17:17:00,
2013-10-18 12:22:00,44.9,40.7,29.90,WSW,240,7.7,15.0,85,0.00,OVC,,0.00,WeatherDisplay:10.37,2013-10-18 17:22:00,
2013-10-18 12:27:00,44.8,40.6,29.90,WNW,291,3.0,9.2,85,0.00,OVC,,0.00,WeatherDisplay:10.37,2013-10-18 17:27:00,
2013-10-18 12:32:00,44.9,40.0,29.90,West,276,7.6,12.7,83,0.00,OVC,,0.00,WeatherDisplay:10.37,2013-10-18 17:32:00,
2013-10-18 12:36:00,44.9,40.4,29.90,WNW,300,4.3,6.9,84,0.00,OVC,,0.00,WeatherDisplay:10.37,2013-10-18 17:36:00,
2013-10-18 12:41:00,45.1,40.6,29.90,NNW,339,3.2,9.2,84,0.00,OVC,,0.00,WeatherDisplay:10.37,2013-10-18 17:41:00,
2013-10-18 12:46:00,45.1,40.2,29.90,NW,325,4.4,8.1,83,0.00,OVC,,0.00,WeatherDisplay:10.37,2013-10-18 17:46:00,
2013-10-18 12:51:00,44.9,40.0,29.90,WSW,253,5.3,10.5,83,0.00,OVC,,0.00,WeatherDisplay:10.37,2013-10-18 17:51:00,
2013-10-18 12:56:00,44.9,40.0,29.90,WSW,257,4.8,8.1,83,0.00,OVC,,0.00,WeatherDisplay:10.37,2013-10-18 17:56:00,
2013-10-18 13:01:00,45.2,40.3,29.90,WNW,294,5.6,10.4,83,0.00,OVC,,0.00,WeatherDisplay:10.37,2013-10-18 18:01:00,
2013-10-18 13:06:00,44.9,40.0,29.89,West,264,4.0,5.8,83,0.00,OVC,,0.00,WeatherDisplay:10.37,2013-10-18 18:06:00,
2013-10-18 13:11:00,44.6,39.8,29.90,NW,314,5.2,8.3,83,0.00,OVC,,0.00,WeatherDisplay:10.37,2013-10-18 18:11:00,
2013-10-18 13:16:00,44.8,40.0,29.90,WNW,285,6.7,11.0,83,0.00,OVC,,0.00,WeatherDisplay:10.37,2013-10-18 18:16:00,
2013-10-18 13:21:00,44.7,40.2,29.90,NW,305,4.5,11.1,84,0.00,OVC,,0.00,WeatherDisplay:10.37,2013-10-18 18:21:00,
2013-10-18 13:26:00,44.7,40.2,29.90,WNW,297,4.5,6.9,84,0.00,OVC,,0.00,WeatherDisplay:10.37,2013-10-18 18:26:00,
2013-10-18 13:31:00,44.5,39.3,29.90,WNW,285,8.2,13.8,82,0.00,OVC,,0.00,WeatherDisplay:10.37,2013-10-18 18:31:00,
2013-10-18 13:36:00,44.6,39.8,29.90,West,261,6.9,11.5,83,0.00,OVC,,0.00,WeatherDisplay:10.37,2013-10-18 18:36:00,
2013-10-18 13:41:00,44.6,39.4,29.90,WNW,285,6.1,16.1,82,0.00,OVC,,0.00,WeatherDisplay:10.37,2013-10-18 18:41:00,
2013-10-18 13:46:00,44.8,39.6,29.90,NNW,336,2.2,9.2,82,0.00,OVC,,0.00,WeatherDisplay:10.37,2013-10-18 18:46:00,
2013-10-18 13:51:00,44.7,39.2,29.90,West,263,2.1,5.8,81,0.00,OVC,,0.00,WeatherDisplay:10.37,2013-10-18 18:51:00,
2013-10-18 13:56:00,45.0,39.2,29.90,WNW,297,3.9,6.9,80,0.00,OVC,,0.00,WeatherDisplay:10.37,2013-10-18 18:56:00,
2013-10-18 14:01:00,44.9,38.8,29.90,NNW,345,4.6,8.1,79,0.00,OVC,,0.00,WeatherDisplay:10.37,2013-10-18 19:01:00,
2013-10-18 14:06:00,45.0,38.9,29.90,NNW,342,4.8,8.1,79,0.00,OVC,,0.00,WeatherDisplay:10.37,2013-10-18 19:06:00,
2013-10-18 14:11:00,45.3,39.2,29.90,SW,230,1.0,5.8,79,0.00,OVC,,0.00,WeatherDisplay:10.37,2013-10-18 19:11:00,
2013-10-18 14:16:00,45.1,38.6,29.90,North,355,4.2,8.1,78,0.00,OVC,,0.00,WeatherDisplay:10.37,2013-10-18 19:16:00,
2013-10-18 14:21:00,45.3,38.8,29.89,WNW,300,5.9,13.7,78,0.00,OVC,,0.00,WeatherDisplay:10.37,2013-10-18 19:21:00,
2013-10-18 14:26:00,45.2,38.4,29.89,NW,307,5.6,11.7,77,0.00,OVC,,0.00,WeatherDisplay:10.37,2013-10-18 19:26:00,
2013-10-18 14:31:00,45.0,37.9,29.89,NW,318,6.7,10.4,76,0.00,OVC,,0.00,WeatherDisplay:10.37,2013-10-18 19:31:00,
2013-10-18 14:36:00,45.0,38.2,29.89,NW,321,7.5,12.7,77,0.00,OVC,,0.00,WeatherDisplay:10.37,2013-10-18 19:36:00,
2013-10-18 14:41:00,45.0,37.9,29.89,SW,228,3.2,9.2,76,0.00,OVC,,0.00,WeatherDisplay:10.37,2013-10-18 19:41:00,
2013-10-18 14:46:00,45.0,37.9,29.89,WNW,283,3.4,10.4,76,0.00,OVC,,0.00,WeatherDisplay:10.37,2013-10-18 19:46:00,
2013-10-18 14:51:00,45.2,37.7,29.89,NNE,20,4.7,11.5,75,0.00,OVC,,0.00,WeatherDisplay:10.37,2013-10-18 19:51:00,
2013-10-18 14:56:00,45.5,38.0,29.89,NW,307,5.1,12.7,75,0.00,OVC,,0.00,WeatherDisplay:10.37,2013-10-18 19:56:00,
2013-10-18 15:01:00,45.4,37.6,29.89,SW,236,6.9,11.5,74,0.00,OVC,,0.00,WeatherDisplay:10.37,2013-10-18 20:01:00,
2013-10-18 15:06:00,45.3,37.8,29.90,NW,319,4.6,6.9,75,0.00,OVC,,0.00,WeatherDisplay:10.37,2013-10-18 20:06:00,
2013-10-18 15:11:00,44.8,37.4,29.90,WNW,290,9.1,16.0,75,0.00,OVC,,0.00,WeatherDisplay:10.37,2013-10-18 20:11:00,
2013-10-18 15:16:00,44.8,37.7,29.90,NW,322,2.5,5.8,76,0.00,OVC,,0.00,WeatherDisplay:10.37,2013-10-18 20:16:00,
2013-10-18 15:21:00,44.8,37.7,29.90,North,2,3.9,6.9,76,0.00,OVC,,0.00,WeatherDisplay:10.37,2013-10-18 20:21:00,
2013-10-18 15:26:00,44.7,37.3,29.90,WSW,237,6.5,11.5,75,0.00,OVC,,0.00,WeatherDisplay:10.37,2013-10-18 20:26:00,
2013-10-18 15:31:00,44.7,36.9,29.90,West,276,9.7,16.1,74,0.00,OVC,,0.00,WeatherDisplay:10.37,2013-10-18 20:31:00,
2013-10-18 15:36:00,45.0,37.6,29.90,NW,319,2.6,9.2,75,0.00,OVC,,0.00,WeatherDisplay:10.37,2013-10-18 20:36:00,
2013-10-18 15:41:00,44.9,37.8,29.90,NW,314,3.8,5.7,76,0.00,OVC,,0.00,WeatherDisplay:10.37,2013-10-18 20:41:00,
2013-10-18 15:46:00,44.9,37.5,29.91,NW,311,2.8,6.9,75,0.00,OVC,,0.00,WeatherDisplay:10.37,2013-10-18 20:46:00,
2013-10-18 15:51:00,44.9,37.5,29.91,WNW,295,6.1,12.7,75,0.00,OVC,,0.00,WeatherDisplay:10.37,2013-10-18 20:51:00,
2013-10-18 15:56:00,44.9,37.8,29.91,NW,307,0.1,2.3,76,0.00,OVC,,0.00,WeatherDisplay:10.37,2013-10-18 20:56:00,
2013-10-18 16:01:00,45.0,37.2,29.91,West,260,3.8,9.2,74,0.00,OVC,,0.00,WeatherDisplay:10.37,2013-10-18 21:01:00,
2013-10-18 16:06:00,44.9,36.8,29.91,WNW,288,4.3,9.2,73,0.00,OVC,,0.00,WeatherDisplay:10.37,2013-10-18 21:06:00,
2013-10-18 16:11:00,45.0,36.9,29.91,SW,232,4.8,11.5,73,0.00,OVC,,0.00,WeatherDisplay:10.37,2013-10-18 21:11:00,
2013-10-18 16:16:00,44.8,36.7,29.91,NW,311,5.7,9.2,73,0.00,OVC,,0.00,WeatherDisplay:10.37,2013-10-18 21:16:00,
2013-10-18 16:21:00,45.0,36.9,29.91,NNE,20,4.9,6.9,73,0.00,OVC,,0.00,WeatherDisplay:10.37,2013-10-18 21:21:00,
2013-10-18 16:26:00,45.1,37.0,29.91,WNW,291,6.5,10.4,73,0.00,OVC,,0.00,WeatherDisplay:10.37,2013-10-18 21:26:00,
2013-10-18 16:31:00,45.2,36.7,29.91,NW,308,7.4,12.7,72,0.00,OVC,,0.00,WeatherDisplay:10.37,2013-10-18 21:31:00,
2013-10-18 16:36:00,45.2,36.4,29.90,NW,305,6.8,11.5,71,0.00,OVC,,0.00,WeatherDisplay:10.37,2013-10-18 21:36:00,
2013-10-18 16:41:00,45.7,37.2,29.90,NW,311,0.0,0.0,72,0.00,OVC,,0.00,WeatherDisplay:10.37,2013-10-18 21:41:00,
2013-10-18 16:46:00,45.6,36.7,29.91,WSW,247,4.9,9.2,71,0.00,OVC,,0.00,WeatherDisplay:10.37,2013-10-18 21:46:00,
2013-10-18 16:51:00,46.0,36.8,29.91,WNW,291,2.7,6.9,70,0.00,OVC,,0.00,WeatherDisplay:10.37,2013-10-18 21:51:00,
2013-10-18 16:56:00,45.9,36.7,29.91,SW,223,0.0,0.0,70,0.00,OVC,,0.00,WeatherDisplay:10.37,2013-10-18 21:56:00,
2013-10-18 17:01:00,45.6,36.0,29.91,West,266,5.3,8.1,69,0.00,OVC,,0.00,WeatherDisplay:10.37,2013-10-18 22:01:00,
2013-10-18 17:06:00,45.7,36.5,29.91,NW,316,3.2,6.9,70,0.00,OVC,,0.00,WeatherDisplay:10.37,2013-10-18 22:06:00,
2013-10-18 17:11:00,45.4,35.8,29.91,West,280,5.6,9.2,69,0.00,OVC,,0.00,WeatherDisplay:10.37,2013-10-18 22:11:00,
2013-10-18 17:16:00,45.5,35.9,29.91,NNW,346,2.5,6.8,69,0.00,OVC,,0.00,WeatherDisplay:10.37,2013-10-18 22:16:00,
2013-10-18 17:21:00,45.6,36.0,29.91,West,264,3.8,5.8,69,0.00,OVC,,0.00,WeatherDisplay:10.37,2013-10-18 22:21:00,
2013-10-18 17:26:00,45.4,36.2,29.91,NNW,329,3.2,5.8,70,0.00,OVC,,0.00,WeatherDisplay:10.37,2013-10-18 22:26:00,
2013-10-18 17:31:00,45.5,36.3,29.92,NW,312,2.7,4.6,70,0.00,OVC,,0.00,WeatherDisplay:10.37,2013-10-18 22:31:00,
2013-10-18 17:36:00,45.7,36.5,29.91,West,266,0.7,2.3,70,0.00,OVC,,0.00,WeatherDisplay:10.37,2013-10-18 22:36:00,
2013-10-18 17:41:00,45.3,36.1,29.92,West,277,0.4,2.6,70,0.00,OVC,,0.00,WeatherDisplay:10.37,2013-10-18 22:41:00,
2013-10-18 17:46:00,45.3,36.4,29.91,WNW,288,0.8,3.5,71,0.00,OVC,,0.00,WeatherDisplay:10.37,2013-10-18 22:46:00,
2013-10-18 17:51:00,45.2,36.4,29.91,West,268,1.5,3.2,71,0.00,OVC,,0.00,WeatherDisplay:10.37,2013-10-18 22:51:00,
2013-10-18 17:56:00,45.1,36.6,29.91,West,259,0.1,2.1,72,0.00,OVC,,0.00,WeatherDisplay:10.37,2013-10-18 22:56:00,
2013-10-18 18:01:00,45.1,37.0,29.92,SW,230,0.0,0.0,73,0.00,BKN,,0.00,WeatherDisplay:10.37,2013-10-18 23:01:00,
2013-10-18 18:06:00,44.8,36.7,29.92,West,259,2.2,4.6,73,0.00,BKN,,0.00,WeatherDisplay:10.37,2013-10-18 23:06:00,
2013-10-18 18:11:00,44.5,36.7,29.92,WSW,239,0.1,1.6,74,0.00,BKN,,0.00,WeatherDisplay:10.37,2013-10-18 23:11:00,
2013-10-18 18:16:00,44.4,36.6,29.92,WSW,254,0.9,2.3,74,0.00,BKN,,0.00,WeatherDisplay:10.37,2013-10-18 23:16:00,
2013-10-18 18:21:00,44.2,36.8,29.92,SW,235,0.0,0.0,75,0.00,BKN,,0.00,WeatherDisplay:10.37,2013-10-18 23:21:00,
2013-10-18 18:26:00,44.1,37.0,29.92,SW,235,0.0,0.0,76,0.00,BKN,,0.00,WeatherDisplay:10.37,2013-10-18 23:26:00,
2013-10-18 18:31:00,44.0,37.3,29.92,SW,235,0.0,0.0,77,0.00,BKN,,0.00,WeatherDisplay:10.37,2013-10-18 23:31:00,
2013-10-18 18:36:00,43.8,37.4,29.92,SW,235,0.0,0.0,78,0.00,BKN,,0.00,WeatherDisplay:10.37,2013-10-18 23:36:00,
2013-10-18 18:41:00,43.2,37.1,29.92,SW,235,0.0,0.0,79,0.00,BKN,,0.00,WeatherDisplay:10.37,2013-10-18 23:41:00,
2013-10-18 18:46:00,43.0,37.3,29.92,SW,235,0.0,0.0,80,0.00,BKN,,0.00,WeatherDisplay:10.37,2013-10-18 23:46:00,
2013-10-18 18:51:00,42.5,37.1,29.92,SW,235,0.0,0.0,81,0.00,BKN,,0.00,WeatherDisplay:10.37,2013-10-18 23:51:00,
2013-10-18 18:56:00,42.1,37.0,29.93,SW,235,0.0,0.0,82,0.00,BKN,,0.00,WeatherDisplay:10.37,2013-10-18 23:56:00,
2013-10-18 19:01:00,41.8,37.0,29.93,SW,235,0.0,0.0,83,0.00,BKN,,0.00,WeatherDisplay:10.37,2013-10-19 00:01:00,
2013-10-18 19:06:00,41.6,36.8,29.93,SW,235,0.0,0.0,83,0.00,BKN,,0.00,WeatherDisplay:10.37,2013-10-19 00:06:00,
2013-10-18 19:11:00,41.7,37.2,29.93,SW,235,0.0,0.0,84,0.00,BKN,,0.00,WeatherDisplay:10.37,2013-10-19 00:11:00,
2013-10-18 19:16:00,41.6,37.4,29.93,SW,235,0.0,0.0,85,0.00,BKN,,0.00,WeatherDisplay:10.37,2013-10-19 00:16:00,
2013-10-18 19:21:00,41.3,37.1,29.93,SW,235,0.0,0.0,85,0.00,BKN,,0.00,WeatherDisplay:10.37,2013-10-19 00:21:00,
2013-10-18 19:26:00,41.2,37.3,29.93,SW,235,0.0,0.0,86,0.00,BKN,,0.00,WeatherDisplay:10.37,2013-10-19 00:26:00,
2013-10-18 19:31:00,41.1,37.5,29.93,SW,235,0.0,0.0,87,0.00,BKN,,0.00,WeatherDisplay:10.37,2013-10-19 00:31:00,
2013-10-18 19:36:00,40.9,37.3,29.93,SW,235,0.0,0.0,87,0.00,BKN,,0.00,WeatherDisplay:10.37,2013-10-19 00:36:00,
2013-10-18 19:41:00,40.9,37.6,29.93,SW,235,0.0,0.0,88,0.00,BKN,,0.00,WeatherDisplay:10.37,2013-10-19 00:41:00,
2013-10-18 19:46:00,40.9,37.6,29.93,SW,235,0.0,0.0,88,0.00,BKN,,0.00,WeatherDisplay:10.37,2013-10-19 00:46:00,
2013-10-18 19:51:00,41.0,37.7,29.93,SW,235,0.0,0.0,88,0.00,BKN,,0.00,WeatherDisplay:10.37,2013-10-19 00:51:00,
2013-10-18 19:56:00,41.0,37.7,29.93,West,264,0.1,1.2,88,0.00,BKN,,0.00,WeatherDisplay:10.37,2013-10-19 00:56:00,
2013-10-18 20:01:00,41.1,37.8,29.93,West,260,0.8,1.4,88,0.00,BKN,,0.00,WeatherDisplay:10.37,2013-10-19 01:01:00,
2013-10-18 20:06:00,41.2,37.9,29.93,SW,223,0.0,0.0,88,0.00,BKN,,0.00,WeatherDisplay:10.37,2013-10-19 01:06:00,
2013-10-18 20:11:00,41.2,37.9,29.93,SW,223,0.0,0.0,88,0.00,BKN,,0.00,WeatherDisplay:10.37,2013-10-19 01:11:00,
2013-10-18 20:16:00,41.3,37.7,29.93,SW,223,0.0,0.0,87,0.00,BKN,,0.00,WeatherDisplay:10.37,2013-10-19 01:16:00,
2013-10-18 20:21:00,41.4,37.8,29.93,SW,223,0.0,0.0,87,0.00,BKN,,0.00,WeatherDisplay:10.37,2013-10-19 01:21:00,
2013-10-18 20:26:00,41.3,37.7,29.93,SW,223,0.0,0.0,87,0.00,BKN,,0.00,WeatherDisplay:10.37,2013-10-19 01:26:00,
2013-10-18 20:31:00,41.1,37.5,29.93,SW,223,0.0,0.0,87,0.00,BKN,,0.00,WeatherDisplay:10.37,2013-10-19 01:31:00,
2013-10-18 20:36:00,41.1,37.8,29.93,SW,223,0.0,0.0,88,0.00,BKN,,0.00,WeatherDisplay:10.37,2013-10-19 01:36:00,
2013-10-18 20:41:00,41.1,37.8,29.93,SW,223,0.0,0.0,88,0.00,BKN,,0.00,WeatherDisplay:10.37,2013-10-19 01:41:00,
2013-10-18 20:46:00,41.0,37.7,29.93,SW,223,0.0,0.0,88,0.00,BKN,,0.00,WeatherDisplay:10.37,2013-10-19 01:46:00,
2013-10-18 20:51:00,40.9,37.6,29.92,SW,223,0.0,0.0,88,0.00,BKN,,0.00,WeatherDisplay:10.37,2013-10-19 01:51:00,
2013-10-18 20:56:00,40.7,37.7,29.92,SW,223,0.0,0.0,89,0.00,BKN,,0.00,WeatherDisplay:10.37,2013-10-19 01:56:00,
2013-10-18 21:01:00,40.6,37.6,29.92,SW,223,0.0,0.0,89,0.00,FEW,,0.00,WeatherDisplay:10.37,2013-10-19 02:01:00,
2013-10-18 21:06:00,40.1,37.4,29.92,SW,223,0.0,0.0,90,0.00,FEW,,0.00,WeatherDisplay:10.37,2013-10-19 02:06:00,
2013-10-18 21:11:00,40.1,37.4,29.92,SW,223,0.0,0.0,90,0.00,FEW,,0.00,WeatherDisplay:10.37,2013-10-19 02:11:00,
2013-10-18 21:16:00,39.6,37.2,29.92,SW,223,0.0,0.0,91,0.00,FEW,,0.00,WeatherDisplay:10.37,2013-10-19 02:16:00,
2013-10-18 21:21:00,39.7,37.6,29.92,SW,223,0.0,0.0,92,0.00,FEW,,0.00,WeatherDisplay:10.37,2013-10-19 02:21:00,
2013-10-18 21:26:00,39.8,37.7,29.92,SW,223,0.0,0.0,92,0.00,FEW,,0.00,WeatherDisplay:10.37,2013-10-19 02:26:00,
2013-10-18 21:31:00,39.7,37.8,29.92,SW,223,0.0,0.0,93,0.00,FEW,,0.00,WeatherDisplay:10.37,2013-10-19 02:31:00,
2013-10-18 21:36:00,39.7,37.8,29.92,SW,223,0.0,0.0,93,0.00,FEW,,0.00,WeatherDisplay:10.37,2013-10-19 02:36:00,
2013-10-18 21:41:00,39.8,37.9,29.92,SW,223,0.0,0.0,93,0.00,FEW,,0.00,WeatherDisplay:10.37,2013-10-19 02:41:00,
2013-10-18 21:46:00,39.8,37.9,29.92,SW,223,0.0,0.0,93,0.00,FEW,,0.00,WeatherDisplay:10.37,2013-10-19 02:46:00,
2013-10-18 21:51:00,40.4,38.5,29.92,SW,223,0.0,0.0,93,0.00,FEW,,0.00,WeatherDisplay:10.37,2013-10-19 02:51:00,
2013-10-18 21:56:00,40.4,38.3,29.91,SW,223,0.0,0.0,92,0.00,FEW,,0.00,WeatherDisplay:10.37,2013-10-19 02:56:00,
2013-10-18 22:01:00,40.4,38.3,29.91,SW,223,1.1,2.3,92,0.00,FEW,,0.00,WeatherDisplay:10.37,2013-10-19 03:01:00,
2013-10-18 22:06:00,40.8,38.4,29.91,SW,219,1.4,2.3,91,0.00,FEW,,0.00,WeatherDisplay:10.37,2013-10-19 03:06:00,
2013-10-18 22:11:00,40.7,38.3,29.92,SSW,202,1.4,2.3,91,0.00,FEW,,0.00,WeatherDisplay:10.37,2013-10-19 03:11:00,
2013-10-18 22:16:00,40.9,38.5,29.92,SSW,202,1.6,2.3,91,0.00,FEW,,0.00,WeatherDisplay:10.37,2013-10-19 03:16:00,
2013-10-18 22:21:00,40.7,38.3,29.92,WSW,252,1.9,2.3,91,0.00,FEW,,0.00,WeatherDisplay:10.37,2013-10-19 03:21:00,
2013-10-18 22:26:00,41.0,38.3,29.92,SW,226,2.3,3.8,90,0.00,FEW,,0.00,WeatherDisplay:10.37,2013-10-19 03:26:00,
2013-10-18 22:31:00,40.9,38.2,29.91,WSW,242,2.1,3.5,90,0.00,FEW,,0.00,WeatherDisplay:10.37,2013-10-19 03:31:00,
2013-10-18 22:36:00,41.3,38.3,29.91,WSW,246,2.6,3.5,89,0.00,FEW,,0.00,WeatherDisplay:10.37,2013-10-19 03:36:00,
2013-10-18 22:41:00,41.1,37.8,29.91,West,267,0.6,2.2,88,0.00,FEW,,0.00,WeatherDisplay:10.37,2013-10-19 03:41:00,
2013-10-18 22:46:00,41.2,37.9,29.91,WSW,240,1.1,2.2,88,0.00,FEW,,0.00,WeatherDisplay:10.37,2013-10-19 03:46:00,
2013-10-18 22:51:00,41.3,38.0,29.91,WSW,252,1.2,2.3,88,0.00,FEW,,0.00,WeatherDisplay:10.37,2013-10-19 03:51:00,
2013-10-18 22:56:00,41.3,37.7,29.91,SW,220,0.0,0.0,87,0.00,FEW,,0.00,WeatherDisplay:10.37,2013-10-19 03:56:00,
2013-10-18 23:01:00,41.3,37.7,29.91,SW,220,1.5,2.3,87,0.00,FEW,,0.00,WeatherDisplay:10.37,2013-10-19 04:01:00,
2013-10-18 23:02:00,41.2,37.6,29.91,SSW,206,0.0,1.2,87,0.00,CLR,,0.00,WeatherDisplay:10.37,2013-10-19 04:02:00,
2013-10-18 23:07:00,41.0,37.7,29.91,SW,236,0.6,1.2,88,0.00,CLR,,0.00,WeatherDisplay:10.37,2013-10-19 04:07:00,
2013-10-18 23:12:00,40.8,37.5,29.91,SSW,201,0.0,0.0,88,0.00,CLR,,0.00,WeatherDisplay:10.37,2013-10-19 04:12:00,
2013-10-18 23:17:00,40.6,37.6,29.91,SW,233,1.7,3.2,89,0.00,CLR,,0.00,WeatherDisplay:10.37,2013-10-19 04:17:00,
2013-10-18 23:22:00,40.3,37.3,29.91,SW,222,2.9,3.5,89,0.00,CLR,,0.00,WeatherDisplay:10.37,2013-10-19 04:22:00,
2013-10-18 23:27:00,40.2,37.5,29.91,SW,226,2.5,3.6,90,0.00,CLR,,0.00,WeatherDisplay:10.37,2013-10-19 04:27:00,
2013-10-18 23:32:00,40.0,37.3,29.91,South,191,2.4,2.4,90,0.00,CLR,,0.00,WeatherDisplay:10.37,2013-10-19 04:32:00,
2013-10-18 23:37:00,40.2,37.5,29.91,SW,222,3.4,5.8,90,0.00,CLR,,0.00,WeatherDisplay:10.37,2013-10-19 04:37:00,
2013-10-18 23:42:00,40.5,37.5,29.91,SW,230,1.8,3.5,89,0.00,CLR,,0.00,WeatherDisplay:10.37,2013-10-19 04:42:00,
2013-10-18 23:47:00,40.3,37.3,29.90,SW,233,1.5,2.5,89,0.00,CLR,,0.00,WeatherDisplay:10.37,2013-10-19 04:47:00,
2013-10-18 23:52:00,40.4,37.4,29.90,WSW,240,0.2,1.2,89,0.00,CLR,,0.00,WeatherDisplay:10.37,2013-10-19 04:52:00,
2013-10-18 23:57:00,40.2,37.2,29.90,South,182,0.0,0.0,89,0.00,CLR,,0.00,WeatherDisplay:10.37,2013-10-19 04:57:00,